sensor_id;sensor_type;location;lat;lon;timestamp;P1;durP1;ratioP1;P2;durP2;ratioP2
22679;SDS011;11507;44.858;10.374;2023-07-31T13:07:44;4.22;;;2.60;;
22679;SDS011;11507;44.858;10.374;2023-07-31T13:10:11;5.07;;;2.80;;
22679;SDS011;11507;44.858;10.374;2023-07-31T13:12:37;4.70;;;2.60;;
22679;SDS011;11507;44.858;10.374;2023-07-31T13:15:04;5.30;;;2.83;;
22679;SDS011;11507;44.858;10.374;2023-07-31T13:17:30;9.60;;;3.17;;
22679;SDS011;11507;44.858;10.374;2023-07-31T13:19:56;3.72;;;2.60;;
22679;SDS011;11507;44.858;10.374;2023-07-31T13:22:22;3.60;;;2.70;;
22679;SDS011;11507;44.858;10.374;2023-07-31T13:24:48;4.47;;;2.88;;
22679;SDS011;11507;44.858;10.374;2023-07-31T13:27:14;5.75;;;2.78;;
22679;SDS011;11507;44.858;10.374;2023-07-31T13:29:53;10.05;;;2.90;;
22679;SDS011;11507;44.858;10.374;2023-07-31T13:32:19;9.30;;;2.78;;
22679;SDS011;11507;44.858;10.374;2023-07-31T13:38:04;4.18;;;2.40;;
22679;SDS011;11507;44.858;10.374;2023-07-31T13:40:30;4.10;;;2.80;;
22679;SDS011;11507;44.858;10.374;2023-07-31T13:42:56;4.07;;;2.50;;
22679;SDS011;11507;44.858;10.374;2023-07-31T13:45:22;4.78;;;2.63;;
22679;SDS011;11507;44.858;10.374;2023-07-31T13:47:49;5.47;;;2.67;;
22679;SDS011;11507;44.858;10.374;2023-07-31T13:50:16;5.07;;;2.50;;
22679;SDS011;11507;44.858;10.374;2023-07-31T13:52:44;3.65;;;2.40;;
22679;SDS011;11507;44.858;10.374;2023-07-31T13:55:09;4.25;;;2.40;;
22679;SDS011;11507;44.858;10.374;2023-07-31T13:57:35;4.38;;;2.45;;
22679;SDS011;11507;44.858;10.374;2023-07-31T14:00:01;5.38;;;2.80;;
22679;SDS011;11507;44.858;10.374;2023-07-31T14:02:30;3.42;;;2.25;;
22679;SDS011;11507;44.858;10.374;2023-07-31T14:04:56;3.65;;;2.58;;
22679;SDS011;11507;44.858;10.374;2023-07-31T14:07:21;4.38;;;2.67;;
22679;SDS011;11507;44.858;10.374;2023-07-31T14:09:47;5.57;;;2.28;;
22679;SDS011;11507;44.858;10.374;2023-07-31T14:12:13;3.53;;;2.53;;
22679;SDS011;11507;44.858;10.374;2023-07-31T14:14:38;4.38;;;2.20;;
22679;SDS011;11507;44.858;10.374;2023-07-31T14:17:05;3.50;;;2.28;;
22679;SDS011;11507;44.858;10.374;2023-07-31T14:19:30;5.97;;;2.45;;
22679;SDS011;11507;44.858;10.374;2023-07-31T14:21:58;4.10;;;2.65;;
22679;SDS011;11507;44.858;10.374;2023-07-31T14:24:24;4.40;;;2.60;;
22679;SDS011;11507;44.858;10.374;2023-07-31T14:26:50;5.50;;;2.65;;
22679;SDS011;11507;44.858;10.374;2023-07-31T14:29:16;4.90;;;2.80;;
22679;SDS011;11507;44.858;10.374;2023-07-31T14:31:42;3.95;;;2.75;;
22679;SDS011;11507;44.858;10.374;2023-07-31T14:34:07;6.00;;;2.65;;
22679;SDS011;11507;44.858;10.374;2023-07-31T14:36:33;4.82;;;2.33;;
22679;SDS011;11507;44.858;10.374;2023-07-31T14:38:59;3.83;;;2.50;;
22679;SDS011;11507;44.858;10.374;2023-07-31T14:41:25;4.15;;;2.72;;
22679;SDS011;11507;44.858;10.374;2023-07-31T14:43:51;5.13;;;2.58;;
22679;SDS011;11507;44.858;10.374;2023-07-31T14:46:16;3.35;;;2.45;;
22679;SDS011;11507;44.858;10.374;2023-07-31T14:48:42;5.85;;;2.80;;
22679;SDS011;11507;44.858;10.374;2023-07-31T14:51:08;3.90;;;2.90;;
22679;SDS011;11507;44.858;10.374;2023-07-31T14:53:33;4.45;;;2.90;;
22679;SDS011;11507;44.858;10.374;2023-07-31T14:55:59;6.75;;;2.53;;
22679;SDS011;11507;44.858;10.374;2023-07-31T14:58:25;3.63;;;2.70;;
22679;SDS011;11507;44.858;10.374;2023-07-31T15:00:51;4.50;;;2.70;;
22679;SDS011;11507;44.858;10.374;2023-07-31T15:03:18;3.80;;;2.35;;
22679;SDS011;11507;44.858;10.374;2023-07-31T15:05:43;4.50;;;2.60;;
22679;SDS011;11507;44.858;10.374;2023-07-31T15:08:09;3.22;;;2.58;;
22679;SDS011;11507;44.858;10.374;2023-07-31T15:10:35;3.20;;;2.15;;
22679;SDS011;11507;44.858;10.374;2023-07-31T15:13:01;4.70;;;2.50;;
22679;SDS011;11507;44.858;10.374;2023-07-31T15:15:27;4.75;;;2.60;;
22679;SDS011;11507;44.858;10.374;2023-07-31T15:17:53;5.78;;;2.70;;
22679;SDS011;11507;44.858;10.374;2023-07-31T15:20:20;4.22;;;2.47;;
22679;SDS011;11507;44.858;10.374;2023-07-31T15:22:46;3.97;;;2.20;;
22679;SDS011;11507;44.858;10.374;2023-07-31T15:25:13;4.68;;;2.60;;
22679;SDS011;11507;44.858;10.374;2023-07-31T15:27:39;4.95;;;2.85;;
22679;SDS011;11507;44.858;10.374;2023-07-31T15:30:05;3.90;;;2.60;;
22679;SDS011;11507;44.858;10.374;2023-07-31T15:32:31;4.10;;;2.45;;
22679;SDS011;11507;44.858;10.374;2023-07-31T15:34:57;5.07;;;2.50;;
22679;SDS011;11507;44.858;10.374;2023-07-31T15:37:23;5.03;;;2.58;;
22679;SDS011;11507;44.858;10.374;2023-07-31T15:39:49;4.35;;;2.72;;
22679;SDS011;11507;44.858;10.374;2023-07-31T15:42:15;3.47;;;2.47;;
22679;SDS011;11507;44.858;10.374;2023-07-31T15:44:41;5.85;;;2.90;;
22679;SDS011;11507;44.858;10.374;2023-07-31T15:47:07;4.82;;;2.75;;
22679;SDS011;11507;44.858;10.374;2023-07-31T15:49:33;4.05;;;2.60;;
22679;SDS011;11507;44.858;10.374;2023-07-31T15:51:59;4.47;;;2.92;;
22679;SDS011;11507;44.858;10.374;2023-07-31T15:54:24;5.60;;;2.83;;
22679;SDS011;11507;44.858;10.374;2023-07-31T15:56:50;4.93;;;2.90;;
22679;SDS011;11507;44.858;10.374;2023-07-31T15:59:16;5.85;;;2.80;;
22679;SDS011;11507;44.858;10.374;2023-07-31T16:01:42;4.65;;;2.92;;
22679;SDS011;11507;44.858;10.374;2023-07-31T16:04:07;4.72;;;2.88;;
22679;SDS011;11507;44.858;10.374;2023-07-31T16:06:33;6.55;;;2.85;;
22679;SDS011;11507;44.858;10.374;2023-07-31T16:09:00;4.03;;;2.70;;
22679;SDS011;11507;44.858;10.374;2023-07-31T16:11:26;4.15;;;2.70;;
22679;SDS011;11507;44.858;10.374;2023-07-31T16:13:52;5.90;;;2.90;;
22679;SDS011;11507;44.858;10.374;2023-07-31T16:16:18;4.97;;;2.88;;
22679;SDS011;11507;44.858;10.374;2023-07-31T16:18:45;5.32;;;2.75;;
22679;SDS011;11507;44.858;10.374;2023-07-31T16:21:10;4.63;;;2.80;;
22679;SDS011;11507;44.858;10.374;2023-07-31T16:23:36;6.30;;;3.00;;
22679;SDS011;11507;44.858;10.374;2023-07-31T16:26:02;7.50;;;3.35;;
22679;SDS011;11507;44.858;10.374;2023-07-31T16:28:28;5.93;;;2.80;;
22679;SDS011;11507;44.858;10.374;2023-07-31T16:30:53;7.50;;;3.63;;
22679;SDS011;11507;44.858;10.374;2023-07-31T16:33:19;7.97;;;3.65;;
22679;SDS011;11507;44.858;10.374;2023-07-31T16:35:45;5.30;;;3.72;;
22679;SDS011;11507;44.858;10.374;2023-07-31T16:38:10;8.73;;;3.40;;
22679;SDS011;11507;44.858;10.374;2023-07-31T16:40:36;7.85;;;3.22;;
22679;SDS011;11507;44.858;10.374;2023-07-31T16:43:02;7.53;;;2.78;;
22679;SDS011;11507;44.858;10.374;2023-07-31T16:45:28;4.70;;;3.08;;
22679;SDS011;11507;44.858;10.374;2023-07-31T16:47:53;6.47;;;3.08;;
22679;SDS011;11507;44.858;10.374;2023-07-31T16:50:19;7.10;;;3.28;;
22679;SDS011;11507;44.858;10.374;2023-07-31T16:52:45;6.80;;;3.20;;
22679;SDS011;11507;44.858;10.374;2023-07-31T16:55:11;5.55;;;2.97;;
22679;SDS011;11507;44.858;10.374;2023-07-31T16:57:36;7.55;;;3.03;;
22679;SDS011;11507;44.858;10.374;2023-07-31T17:00:02;4.78;;;3.08;;
22679;SDS011;11507;44.858;10.374;2023-07-31T17:02:28;7.10;;;2.95;;
22679;SDS011;11507;44.858;10.374;2023-07-31T17:04:54;6.13;;;2.60;;
22679;SDS011;11507;44.858;10.374;2023-07-31T17:07:21;4.20;;;2.53;;
22679;SDS011;11507;44.858;10.374;2023-07-31T17:09:47;6.85;;;2.80;;
22679;SDS011;11507;44.858;10.374;2023-07-31T17:12:13;3.97;;;2.80;;
22679;SDS011;11507;44.858;10.374;2023-07-31T17:14:39;4.72;;;2.60;;
22679;SDS011;11507;44.858;10.374;2023-07-31T17:17:05;4.25;;;2.63;;
22679;SDS011;11507;44.858;10.374;2023-07-31T17:19:32;3.85;;;2.50;;
22679;SDS011;11507;44.858;10.374;2023-07-31T17:21:57;4.57;;;2.53;;
22679;SDS011;11507;44.858;10.374;2023-07-31T17:24:23;5.05;;;2.42;;
22679;SDS011;11507;44.858;10.374;2023-07-31T17:26:49;3.97;;;2.55;;
22679;SDS011;11507;44.858;10.374;2023-07-31T17:29:15;5.15;;;2.30;;
22679;SDS011;11507;44.858;10.374;2023-07-31T17:31:42;8.35;;;2.67;;
22679;SDS011;11507;44.858;10.374;2023-07-31T17:34:08;8.02;;;2.90;;
22679;SDS011;11507;44.858;10.374;2023-07-31T17:36:34;6.28;;;2.65;;
22679;SDS011;11507;44.858;10.374;2023-07-31T17:39:00;5.50;;;2.75;;
22679;SDS011;11507;44.858;10.374;2023-07-31T17:41:26;6.65;;;2.47;;
22679;SDS011;11507;44.858;10.374;2023-07-31T17:43:52;6.72;;;3.10;;
22679;SDS011;11507;44.858;10.374;2023-07-31T17:46:18;8.10;;;2.67;;
22679;SDS011;11507;44.858;10.374;2023-07-31T17:48:45;6.65;;;2.40;;
22679;SDS011;11507;44.858;10.374;2023-07-31T17:51:11;4.70;;;2.13;;
22679;SDS011;11507;44.858;10.374;2023-07-31T17:53:37;4.13;;;2.30;;
22679;SDS011;11507;44.858;10.374;2023-07-31T17:56:03;4.43;;;2.03;;
22679;SDS011;11507;44.858;10.374;2023-07-31T17:58:29;3.15;;;1.70;;
22679;SDS011;11507;44.858;10.374;2023-07-31T18:00:55;4.18;;;2.13;;
22679;SDS011;11507;44.858;10.374;2023-07-31T18:03:20;4.85;;;2.00;;
22679;SDS011;11507;44.858;10.374;2023-07-31T18:05:46;4.22;;;2.10;;
22679;SDS011;11507;44.858;10.374;2023-07-31T18:08:12;4.72;;;2.33;;
22679;SDS011;11507;44.858;10.374;2023-07-31T18:10:47;5.03;;;2.90;;
22679;SDS011;11507;44.858;10.374;2023-07-31T18:13:13;4.28;;;2.35;;
22679;SDS011;11507;44.858;10.374;2023-07-31T18:15:45;3.88;;;2.10;;
22679;SDS011;11507;44.858;10.374;2023-07-31T18:18:12;3.38;;;1.98;;
22679;SDS011;11507;44.858;10.374;2023-07-31T18:20:38;6.00;;;2.17;;
22679;SDS011;11507;44.858;10.374;2023-07-31T18:23:05;4.43;;;2.30;;
22679;SDS011;11507;44.858;10.374;2023-07-31T18:25:30;3.85;;;2.15;;
22679;SDS011;11507;44.858;10.374;2023-07-31T18:27:56;5.30;;;2.45;;
22679;SDS011;11507;44.858;10.374;2023-07-31T18:30:22;3.75;;;1.88;;
22679;SDS011;11507;44.858;10.374;2023-07-31T18:32:48;3.70;;;2.30;;
22679;SDS011;11507;44.858;10.374;2023-07-31T18:35:14;4.75;;;2.45;;
22679;SDS011;11507;44.858;10.374;2023-07-31T18:37:42;4.50;;;2.25;;
22679;SDS011;11507;44.858;10.374;2023-07-31T18:40:08;4.18;;;2.20;;
22679;SDS011;11507;44.858;10.374;2023-07-31T18:42:34;4.10;;;2.13;;
22679;SDS011;11507;44.858;10.374;2023-07-31T18:45:00;4.55;;;2.20;;
22679;SDS011;11507;44.858;10.374;2023-07-31T18:47:26;4.68;;;2.38;;
22679;SDS011;11507;44.858;10.374;2023-07-31T18:49:51;4.18;;;2.30;;
22679;SDS011;11507;44.858;10.374;2023-07-31T18:52:17;4.78;;;2.30;;
22679;SDS011;11507;44.858;10.374;2023-07-31T18:54:43;4.43;;;2.03;;
22679;SDS011;11507;44.858;10.374;2023-07-31T18:57:09;6.78;;;2.10;;
22679;SDS011;11507;44.858;10.374;2023-07-31T18:59:34;5.03;;;2.35;;
22679;SDS011;11507;44.858;10.374;2023-07-31T19:02:00;4.22;;;2.15;;
22679;SDS011;11507;44.858;10.374;2023-07-31T19:04:26;4.07;;;2.53;;
22679;SDS011;11507;44.858;10.374;2023-07-31T19:06:52;5.63;;;2.10;;
22679;SDS011;11507;44.858;10.374;2023-07-31T19:09:26;3.80;;;1.95;;
22679;SDS011;11507;44.858;10.374;2023-07-31T19:11:58;5.57;;;2.20;;
22679;SDS011;11507;44.858;10.374;2023-07-31T19:14:24;4.85;;;2.20;;
22679;SDS011;11507;44.858;10.374;2023-07-31T19:16:50;3.10;;;1.95;;
22679;SDS011;11507;44.858;10.374;2023-07-31T19:19:16;6.57;;;2.33;;
22679;SDS011;11507;44.858;10.374;2023-07-31T19:21:42;5.63;;;2.08;;
22679;SDS011;11507;44.858;10.374;2023-07-31T19:24:08;4.88;;;2.10;;
22679;SDS011;11507;44.858;10.374;2023-07-31T19:26:34;3.80;;;2.08;;
22679;SDS011;11507;44.858;10.374;2023-07-31T19:28:59;5.22;;;2.40;;
22679;SDS011;11507;44.858;10.374;2023-07-31T19:31:25;7.03;;;2.15;;
22679;SDS011;11507;44.858;10.374;2023-07-31T19:33:51;5.03;;;2.40;;
22679;SDS011;11507;44.858;10.374;2023-07-31T19:36:17;5.05;;;2.20;;
22679;SDS011;11507;44.858;10.374;2023-07-31T19:38:43;8.85;;;2.30;;
22679;SDS011;11507;44.858;10.374;2023-07-31T19:41:09;6.20;;;2.50;;
22679;SDS011;11507;44.858;10.374;2023-07-31T19:43:35;5.47;;;2.40;;
22679;SDS011;11507;44.858;10.374;2023-07-31T19:46:01;5.03;;;2.40;;
22679;SDS011;11507;44.858;10.374;2023-07-31T19:48:27;4.35;;;2.30;;
22679;SDS011;11507;44.858;10.374;2023-07-31T19:50:53;4.43;;;2.10;;
22679;SDS011;11507;44.858;10.374;2023-07-31T19:53:18;8.02;;;2.28;;
22679;SDS011;11507;44.858;10.374;2023-07-31T19:55:48;6.60;;;2.35;;
22679;SDS011;11507;44.858;10.374;2023-07-31T19:58:14;4.85;;;2.60;;
22679;SDS011;11507;44.858;10.374;2023-07-31T20:00:40;4.82;;;2.50;;
22679;SDS011;11507;44.858;10.374;2023-07-31T20:03:06;5.53;;;2.42;;
22679;SDS011;11507;44.858;10.374;2023-07-31T20:05:32;4.95;;;2.83;;
22679;SDS011;11507;44.858;10.374;2023-07-31T20:07:57;6.07;;;2.47;;
22679;SDS011;11507;44.858;10.374;2023-07-31T20:10:23;4.22;;;2.40;;
22679;SDS011;11507;44.858;10.374;2023-07-31T20:12:49;5.72;;;2.80;;
22679;SDS011;11507;44.858;10.374;2023-07-31T20:15:18;7.43;;;2.80;;
22679;SDS011;11507;44.858;10.374;2023-07-31T20:17:46;7.45;;;2.80;;
22679;SDS011;11507;44.858;10.374;2023-07-31T20:20:13;6.57;;;2.60;;
22679;SDS011;11507;44.858;10.374;2023-07-31T20:22:39;7.30;;;2.85;;
22679;SDS011;11507;44.858;10.374;2023-07-31T20:25:05;6.78;;;2.95;;
22679;SDS011;11507;44.858;10.374;2023-07-31T20:27:31;7.50;;;3.10;;
22679;SDS011;11507;44.858;10.374;2023-07-31T20:29:57;11.82;;;3.10;;
22679;SDS011;11507;44.858;10.374;2023-07-31T20:32:23;5.10;;;3.22;;
22679;SDS011;11507;44.858;10.374;2023-07-31T20:34:49;8.88;;;2.90;;
22679;SDS011;11507;44.858;10.374;2023-07-31T20:37:14;9.68;;;3.17;;
22679;SDS011;11507;44.858;10.374;2023-07-31T20:39:40;7.43;;;3.15;;
22679;SDS011;11507;44.858;10.374;2023-07-31T20:42:06;10.50;;;3.08;;
22679;SDS011;11507;44.858;10.374;2023-07-31T20:44:32;9.52;;;3.70;;
22679;SDS011;11507;44.858;10.374;2023-07-31T20:46:58;9.10;;;4.00;;
22679;SDS011;11507;44.858;10.374;2023-07-31T20:49:23;9.90;;;3.47;;
22679;SDS011;11507;44.858;10.374;2023-07-31T20:51:49;7.53;;;3.58;;
22679;SDS011;11507;44.858;10.374;2023-07-31T20:54:15;6.75;;;3.70;;
22679;SDS011;11507;44.858;10.374;2023-07-31T20:56:42;6.03;;;3.50;;
22679;SDS011;11507;44.858;10.374;2023-07-31T20:59:08;6.32;;;3.60;;
22679;SDS011;11507;44.858;10.374;2023-07-31T21:01:34;7.15;;;3.63;;
22679;SDS011;11507;44.858;10.374;2023-07-31T21:04:00;7.18;;;3.80;;
22679;SDS011;11507;44.858;10.374;2023-07-31T21:06:26;6.35;;;3.45;;
22679;SDS011;11507;44.858;10.374;2023-07-31T21:08:52;8.48;;;3.60;;
22679;SDS011;11507;44.858;10.374;2023-07-31T21:11:18;10.10;;;3.90;;
22679;SDS011;11507;44.858;10.374;2023-07-31T21:13:44;6.57;;;3.50;;
22679;SDS011;11507;44.858;10.374;2023-07-31T21:16:12;20.65;;;5.28;;
22679;SDS011;11507;44.858;10.374;2023-07-31T21:18:38;24.85;;;5.05;;
22679;SDS011;11507;44.858;10.374;2023-07-31T21:21:04;23.65;;;5.20;;
22679;SDS011;11507;44.858;10.374;2023-07-31T21:23:29;24.98;;;4.72;;
22679;SDS011;11507;44.858;10.374;2023-07-31T21:25:55;26.80;;;5.05;;
22679;SDS011;11507;44.858;10.374;2023-07-31T21:28:21;24.92;;;5.65;;
22679;SDS011;11507;44.858;10.374;2023-07-31T21:30:47;28.00;;;4.53;;
22679;SDS011;11507;44.858;10.374;2023-07-31T21:33:13;18.48;;;4.10;;
22679;SDS011;11507;44.858;10.374;2023-07-31T21:35:39;12.65;;;3.72;;
22679;SDS011;11507;44.858;10.374;2023-07-31T21:38:04;7.32;;;3.92;;
22679;SDS011;11507;44.858;10.374;2023-07-31T21:40:31;7.90;;;4.25;;
22679;SDS011;11507;44.858;10.374;2023-07-31T21:42:57;9.25;;;4.85;;
22679;SDS011;11507;44.858;10.374;2023-07-31T21:45:22;14.07;;;4.38;;
22679;SDS011;11507;44.858;10.374;2023-07-31T21:47:49;6.90;;;4.30;;
22679;SDS011;11507;44.858;10.374;2023-07-31T21:50:17;6.15;;;4.22;;
22679;SDS011;11507;44.858;10.374;2023-07-31T21:52:43;9.52;;;5.35;;
22679;SDS011;11507;44.858;10.374;2023-07-31T21:55:09;9.80;;;5.57;;
22679;SDS011;11507;44.858;10.374;2023-07-31T21:57:35;8.95;;;4.45;;
22679;SDS011;11507;44.858;10.374;2023-07-31T22:00:02;11.32;;;5.07;;
22679;SDS011;11507;44.858;10.374;2023-07-31T22:02:30;8.45;;;5.07;;
22679;SDS011;11507;44.858;10.374;2023-07-31T22:04:56;9.57;;;5.60;;
22679;SDS011;11507;44.858;10.374;2023-07-31T22:07:22;10.05;;;4.90;;
22679;SDS011;11507;44.858;10.374;2023-07-31T22:09:48;8.75;;;5.38;;
22679;SDS011;11507;44.858;10.374;2023-07-31T22:12:13;8.90;;;5.05;;
22679;SDS011;11507;44.858;10.374;2023-07-31T22:14:39;7.80;;;5.40;;
22679;SDS011;11507;44.858;10.374;2023-07-31T22:17:05;9.27;;;5.25;;
22679;SDS011;11507;44.858;10.374;2023-07-31T22:19:31;10.38;;;6.13;;
22679;SDS011;11507;44.858;10.374;2023-07-31T22:21:57;8.73;;;5.78;;
22679;SDS011;11507;44.858;10.374;2023-07-31T22:24:26;9.32;;;5.60;;
22679;SDS011;11507;44.858;10.374;2023-07-31T22:26:51;7.70;;;5.55;;
22679;SDS011;11507;44.858;10.374;2023-07-31T22:29:17;10.07;;;5.43;;
22679;SDS011;11507;44.858;10.374;2023-07-31T22:31:44;7.15;;;5.30;;
22679;SDS011;11507;44.858;10.374;2023-07-31T22:34:10;11.30;;;5.85;;
22679;SDS011;11507;44.858;10.374;2023-07-31T22:36:36;7.15;;;4.65;;
22679;SDS011;11507;44.858;10.374;2023-07-31T22:39:02;10.48;;;5.38;;
22679;SDS011;11507;44.858;10.374;2023-07-31T22:41:29;9.02;;;4.65;;
22679;SDS011;11507;44.858;10.374;2023-07-31T22:43:55;9.63;;;4.60;;
22679;SDS011;11507;44.858;10.374;2023-07-31T22:46:20;8.88;;;4.78;;
22679;SDS011;11507;44.858;10.374;2023-07-31T22:48:46;7.32;;;4.53;;
22679;SDS011;11507;44.858;10.374;2023-07-31T22:51:12;6.50;;;4.43;;
22679;SDS011;11507;44.858;10.374;2023-07-31T22:53:38;7.28;;;4.22;;
22679;SDS011;11507;44.858;10.374;2023-07-31T22:56:04;7.90;;;4.88;;
22679;SDS011;11507;44.858;10.374;2023-07-31T22:58:31;7.13;;;4.38;;
22679;SDS011;11507;44.858;10.374;2023-07-31T23:01:00;9.65;;;4.60;;
22679;SDS011;11507;44.858;10.374;2023-07-31T23:03:30;6.93;;;4.30;;
22679;SDS011;11507;44.858;10.374;2023-07-31T23:05:56;6.35;;;4.25;;
22679;SDS011;11507;44.858;10.374;2023-07-31T23:08:22;7.57;;;3.75;;
22679;SDS011;11507;44.858;10.374;2023-07-31T23:10:48;6.68;;;4.03;;
22679;SDS011;11507;44.858;10.374;2023-07-31T23:13:14;8.77;;;4.50;;
22679;SDS011;11507;44.858;10.374;2023-07-31T23:15:41;8.18;;;4.60;;
22679;SDS011;11507;44.858;10.374;2023-07-31T23:18:07;9.23;;;4.55;;
22679;SDS011;11507;44.858;10.374;2023-07-31T23:20:33;7.95;;;4.15;;
22679;SDS011;11507;44.858;10.374;2023-07-31T23:22:59;7.07;;;3.95;;
22679;SDS011;11507;44.858;10.374;2023-07-31T23:25:25;7.38;;;4.13;;
22679;SDS011;11507;44.858;10.374;2023-07-31T23:27:51;7.45;;;4.35;;
22679;SDS011;11507;44.858;10.374;2023-07-31T23:30:17;7.68;;;4.50;;
22679;SDS011;11507;44.858;10.374;2023-07-31T23:32:42;7.40;;;4.30;;
22679;SDS011;11507;44.858;10.374;2023-07-31T23:35:08;8.75;;;3.90;;
22679;SDS011;11507;44.858;10.374;2023-07-31T23:37:34;7.22;;;4.15;;
22679;SDS011;11507;44.858;10.374;2023-07-31T23:40:00;8.55;;;4.72;;
22679;SDS011;11507;44.858;10.374;2023-07-31T23:42:26;6.90;;;4.13;;
22679;SDS011;11507;44.858;10.374;2023-07-31T23:44:53;8.95;;;4.18;;
22679;SDS011;11507;44.858;10.374;2023-07-31T23:47:20;8.07;;;4.18;;
22679;SDS011;11507;44.858;10.374;2023-07-31T23:49:46;7.47;;;4.20;;
22679;SDS011;11507;44.858;10.374;2023-07-31T23:52:13;9.45;;;4.13;;
22679;SDS011;11507;44.858;10.374;2023-07-31T23:54:38;8.85;;;4.50;;
22679;SDS011;11507;44.858;10.374;2023-07-31T23:57:04;7.65;;;3.95;;
22679;SDS011;11507;44.858;10.374;2023-07-31T23:59:31;6.57;;;3.83;;
